Brașov-Ghimbav International Airport (U.C.)

LRBV · Braşov, 罗马尼亚

罗盘
风向 的 风向 的 风向 到 风向 260° Brașov-Ghimbav International Airport (U.C.) 3/21
风: 4 kt, 2 beaufort

3 kt

3 kt
改变
0 ft 1.000 2.000 3.000 4.000 5.000
未检测到零云
METAR LRBV 212130Z AUTO 26004KT 210V290 9999 NCD 19/17 Q1011

METAR Brașov-Ghimbav International Airport (U.C.) - LRBV/GHV

Brașov-Ghimbav International Airport (U.C.)是,罗马尼亚中的中型机场。 该机场位于纬度45,70622和经度25,52352。 该机场有一条跑道: 3/21. 本场的ICAO机场代码为LRBV。 该机场的IATA代码为GHV。 机场在Bucuresti FIR中。

该航空气象观测是针对Brașov-Ghimbav International Airport (U.C.)在2024年7月22日 00:30, 当地时间进行的。

机场观察

风向为260°,速度为4 kt。 风向在210°和290°之间变化。

可见度为10 km 或者更多。

有未检测到零云。 没有观察到天花板。

温度和风寒是19 °C。 露点为17 °C,相对湿度为88%。 海平面上的气压为1011 hPa (QNH)。

白天

今天,太阳从05:49升起,在20:59降落。 这适用于Brașov-Ghimbav International Airport (U.C.),世界夏令时可能有所不同。 当地时间与世界标准时间之间的时差为+3 小时。 夏令时目前正在进行中。

公司介绍

我们没有关于这个机场的公司信息。

体会

到Vliegles.nl去找飞行课程,跳伞和其他飞行体验。 浏览页面,了解Brașov-Ghimbav International Airport (U.C.)附近所有可用的活动。 你也可以使用搜索功能来寻找你所在地附近的特定飞行课程、跳伞或其他飞行体验。

跑道

Id 标题 侧风 逆风 侧风 %
3/21 036°-216° 3 kt 3 kt 69 %

逆风成分最大的方向会被突出显示,并用于横风计算。 这并不一定意味着这个方向在使用。

乌云

- NCD 未检测到零云

温度 & 天气

温度 19 °C
露点 17 °C
相对湿度 88%
Kp-index 2 (0-9)

白天

日出
05:49 (5:01)
中午
13:24
日落
20:59

小工具

你想在你的网站上有一个关于Brașov-Ghimbav International Airport (U.C.)的当前航空天气(METAR)的小部件吗?

显示HTML代码
报告变更